createdAt,value
2017-09-06T00:00:10.127Z,1007
2017-09-06T00:01:12.522Z,1006.9
2017-09-06T00:02:14.924Z,1006.9
2017-09-06T00:03:17.671Z,1006.9
2017-09-06T00:04:20.063Z,1006.9
2017-09-06T00:05:22.456Z,1006.9
2017-09-06T00:06:24.850Z,1006.9
2017-09-06T00:07:27.244Z,1006.9
2017-09-06T00:08:29.648Z,1006.8
2017-09-06T00:09:32.053Z,1006.8
2017-09-06T00:10:34.436Z,1006.8
2017-09-06T00:11:36.844Z,1006.7
2017-09-06T00:12:39.240Z,1006.7
2017-09-06T00:13:41.636Z,1006.7
2017-09-06T00:14:44.046Z,1006.7
2017-09-06T00:15:46.439Z,1006.7
2017-09-06T00:16:49.169Z,1006.7
2017-09-06T00:17:51.574Z,1006.6
2017-09-06T00:18:53.969Z,1006.6
2017-09-06T00:19:56.368Z,1006.6
2017-09-06T00:20:59.109Z,1006.6
2017-09-06T00:22:01.506Z,1006.5
2017-09-06T00:23:03.902Z,1006.5
2017-09-06T00:24:06.296Z,1006.5
2017-09-06T00:25:08.698Z,1006.5
2017-09-06T00:26:11.091Z,1006.4
2017-09-06T00:27:13.489Z,1006.4
2017-09-06T00:28:16.229Z,1006.5
2017-09-06T00:29:18.629Z,1006.4
2017-09-06T00:30:21.022Z,1006.5
2017-09-06T00:31:23.433Z,1006.4
2017-09-06T00:32:25.824Z,1006.5
2017-09-06T00:33:28.223Z,1006.5
2017-09-06T00:34:30.962Z,1006.4
2017-09-06T00:35:33.362Z,1006.4
2017-09-06T00:36:35.759Z,1006.4
2017-09-06T00:37:38.159Z,1006.4
2017-09-06T00:38:40.557Z,1006.4
2017-09-06T00:39:42.961Z,1006.4
2017-09-06T00:40:45.352Z,1006.3
2017-09-06T00:41:47.750Z,1006.4
2017-09-06T00:42:50.141Z,1006.3
2017-09-06T00:43:52.546Z,1006.3
2017-09-06T00:44:54.933Z,1006.3
2017-09-06T00:45:57.336Z,1006.3
2017-09-06T00:46:59.732Z,1006.3
2017-09-06T00:48:02.471Z,1006.3
2017-09-06T00:49:04.872Z,1006.3
2017-09-06T00:50:07.276Z,1006.2
2017-09-06T00:51:09.672Z,1006.3
2017-09-06T00:52:12.069Z,1006.3
2017-09-06T00:53:14.461Z,1006.2
2017-09-06T00:54:16.864Z,1006.2
2017-09-06T00:55:19.266Z,1006.2
2017-09-06T00:56:22.007Z,1006.2
2017-09-06T00:57:24.410Z,1006.2
2017-09-06T00:58:26.802Z,1006.1
2017-09-06T00:59:29.207Z,1006.2
2017-09-06T01:00:31.611Z,1006.2
2017-09-06T01:01:34.004Z,1006.1
2017-09-06T01:02:36.401Z,1006.1
2017-09-06T01:03:38.799Z,1006.1
2017-09-06T01:04:41.196Z,1006.1
2017-09-06T01:05:43.594Z,1006
2017-09-06T01:06:45.996Z,1006
2017-09-06T01:07:48.391Z,1006
2017-09-06T01:08:51.137Z,1006
2017-09-06T01:09:53.536Z,1006
2017-09-06T01:10:55.935Z,1006
2017-09-06T01:11:58.330Z,1006
2017-09-06T01:13:00.723Z,1006
2017-09-06T01:14:03.127Z,1006
2017-09-06T01:15:05.530Z,1005.9
2017-09-06T01:16:07.921Z,1005.9
2017-09-06T01:17:10.312Z,1005.9
2017-09-06T01:18:12.707Z,1005.9
2017-09-06T01:19:15.146Z,1005.9
2017-09-06T01:20:17.885Z,1006
2017-09-06T01:21:20.272Z,1006
2017-09-06T01:22:22.675Z,1005.9
2017-09-06T01:23:25.074Z,1005.9
2017-09-06T01:24:27.474Z,1005.9
2017-09-06T01:25:29.870Z,1005.9
2017-09-06T01:26:32.264Z,1005.9
2017-09-06T01:27:34.663Z,1005.9
2017-09-06T01:28:37.067Z,1005.8
2017-09-06T01:29:39.457Z,1005.9
2017-09-06T01:30:41.854Z,1005.8
2017-09-06T01:31:44.254Z,1005.8
2017-09-06T01:32:46.653Z,1005.8
2017-09-06T01:33:49.060Z,1005.8
2017-09-06T01:34:51.463Z,1005.8
2017-09-06T01:35:54.200Z,1005.8
2017-09-06T01:36:56.942Z,1005.8
2017-09-06T01:37:59.342Z,1005.7
2017-09-06T01:39:01.734Z,1005.7
2017-09-06T01:40:04.486Z,1005.7
2017-09-06T01:41:06.882Z,1005.7
2017-09-06T01:42:09.277Z,1005.7
2017-09-06T01:43:11.690Z,1005.7
2017-09-06T01:44:14.086Z,1005.7
2017-09-06T01:45:16.825Z,1005.7
2017-09-06T01:46:19.228Z,1005.6
2017-09-06T01:47:21.622Z,1005.7
2017-09-06T01:48:24.028Z,1005.6
2017-09-06T01:49:26.429Z,1005.7
2017-09-06T01:50:28.823Z,1005.6
2017-09-06T01:51:31.228Z,1005.7
2017-09-06T01:52:33.613Z,1005.6
2017-09-06T01:53:36.011Z,1005.6
2017-09-06T01:54:38.418Z,1005.6
2017-09-06T01:55:40.810Z,1005.6
2017-09-06T01:56:43.209Z,1005.6
2017-09-06T01:57:45.608Z,1005.6
2017-09-06T01:58:48.005Z,1005.6
2017-09-06T01:59:50.407Z,1005.6
2017-09-06T02:00:52.802Z,1005.5
2017-09-06T02:01:55.190Z,1005.6
2017-09-06T02:02:57.603Z,1005.5
2017-09-06T02:04:00.003Z,1005.5
2017-09-06T02:05:02.401Z,1005.5
2017-09-06T02:06:04.800Z,1005.5
2017-09-06T02:07:07.191Z,1005.4
2017-09-06T02:08:09.585Z,1005.5
2017-09-06T02:09:11.986Z,1005.4
2017-09-06T02:10:14.380Z,1005.5
2017-09-06T02:11:16.770Z,1005.4
2017-09-06T02:12:19.172Z,1005.4
2017-09-06T02:13:21.570Z,1005.5
2017-09-06T02:14:23.972Z,1005.4
2017-09-06T02:15:26.374Z,1005.4
2017-09-06T02:16:29.099Z,1005.5
2017-09-06T02:17:31.504Z,1005.4
2017-09-06T02:18:33.911Z,1005.4
2017-09-06T02:19:36.646Z,1005.3
2017-09-06T02:20:39.050Z,1005.4
2017-09-06T02:21:41.446Z,1005.4
2017-09-06T02:22:44.180Z,1005.3
2017-09-06T02:23:46.580Z,1005.3
2017-09-06T02:24:48.979Z,1005.3
2017-09-06T02:25:51.376Z,1005.3
2017-09-06T02:26:53.774Z,1005.3
2017-09-06T02:27:56.184Z,1005.3
2017-09-06T02:28:58.584Z,1005.3
2017-09-06T02:30:01.318Z,1005.4
2017-09-06T02:31:03.723Z,1005.3
2017-09-06T02:32:06.127Z,1005.3
2017-09-06T02:33:08.524Z,1005.3
2017-09-06T02:34:10.925Z,1005.3
2017-09-06T02:35:13.313Z,1005.3
2017-09-06T02:36:15.712Z,1005.3
2017-09-06T02:37:18.109Z,1005.3
2017-09-06T02:38:20.510Z,1005.3
2017-09-06T02:39:22.910Z,1005.3
2017-09-06T02:40:25.304Z,1005.3
2017-09-06T02:41:27.701Z,1005.3
2017-09-06T02:42:30.447Z,1005.3
2017-09-06T02:43:32.841Z,1005.3
2017-09-06T02:44:35.243Z,1005.3
2017-09-06T02:45:37.986Z,1005.3
2017-09-06T02:46:40.379Z,1005.3
2017-09-06T02:47:42.799Z,1005.3
2017-09-06T02:48:45.537Z,1005.3
2017-09-06T02:49:47.927Z,1005.3
2017-09-06T02:50:50.330Z,1005.2
2017-09-06T02:51:52.730Z,1005.3
2017-09-06T02:52:55.131Z,1005.2
2017-09-06T02:53:57.530Z,1005.2
2017-09-06T02:54:59.925Z,1005.2
2017-09-06T02:56:02.318Z,1005.2
2017-09-06T02:57:05.071Z,1005.2
2017-09-06T02:58:07.469Z,1005.1
2017-09-06T02:59:09.863Z,1005.1
2017-09-06T03:00:12.267Z,1005.1
2017-09-06T03:01:14.662Z,1005
2017-09-06T03:02:17.406Z,1005
2017-09-06T03:03:19.798Z,1005
2017-09-06T03:04:22.196Z,1005
2017-09-06T03:05:24.598Z,1004.9
2017-09-06T03:06:27.338Z,1004.9
2017-09-06T03:07:29.733Z,1004.9
2017-09-06T03:08:32.131Z,1004.9
2017-09-06T03:09:34.525Z,1004.9
2017-09-06T03:10:36.920Z,1004.9
2017-09-06T03:11:39.324Z,1004.8
2017-09-06T03:12:41.721Z,1004.8
2017-09-06T03:13:44.121Z,1004.8
2017-09-06T03:14:46.525Z,1004.8
2017-09-06T03:15:48.925Z,1004.8
2017-09-06T03:16:51.329Z,1004.8
2017-09-06T03:17:54.065Z,1004.7
2017-09-06T03:18:56.463Z,1004.8
2017-09-06T03:19:58.865Z,1004.8
2017-09-06T03:21:01.266Z,1004.7
2017-09-06T03:22:03.668Z,1004.7
2017-09-06T03:23:06.075Z,1004.7
2017-09-06T03:24:08.469Z,1004.7
2017-09-06T03:25:10.869Z,1004.7
2017-09-06T03:26:13.263Z,1004.7
2017-09-06T03:27:16.006Z,1004.7
2017-09-06T03:28:18.407Z,1004.7
2017-09-06T03:29:21.145Z,1004.6
2017-09-06T03:30:23.530Z,1004.6
2017-09-06T03:31:26.330Z,1004.6
2017-09-06T03:32:28.714Z,1004.5
2017-09-06T03:33:31.112Z,1004.5
2017-09-06T03:34:33.521Z,1004.5
2017-09-06T03:35:35.917Z,1004.5
2017-09-06T03:36:38.314Z,1004.4
2017-09-06T03:37:40.715Z,1004.4
2017-09-06T03:38:43.110Z,1004.4
2017-09-06T03:39:45.509Z,1004.4
2017-09-06T03:40:48.246Z,1004.3
2017-09-06T03:41:50.637Z,1004.3
2017-09-06T03:42:53.045Z,1004.3
2017-09-06T03:43:55.444Z,1004.2
2017-09-06T03:44:57.833Z,1004.2
2017-09-06T03:46:00.231Z,1004.2
2017-09-06T03:47:02.637Z,1004.2
2017-09-06T03:48:05.038Z,1004.2
2017-09-06T03:49:07.433Z,1004.2
2017-09-06T03:50:09.830Z,1004.2
2017-09-06T03:51:12.237Z,1004.2
2017-09-06T03:52:14.629Z,1004.1
2017-09-06T03:53:17.364Z,1004.1
2017-09-06T03:54:20.099Z,1004.1
2017-09-06T03:55:22.501Z,1004.1
2017-09-06T03:56:24.902Z,1004.1
2017-09-06T03:57:27.306Z,1004
2017-09-06T03:58:29.706Z,1004.1
2017-09-06T03:59:32.105Z,1004
2017-09-06T04:00:34.501Z,1004.1
2017-09-06T04:01:36.901Z,1004
2017-09-06T04:02:39.295Z,1004
2017-09-06T04:03:42.035Z,1004
2017-09-06T04:04:44.426Z,1004
2017-09-06T04:05:46.838Z,1004
2017-09-06T04:06:49.274Z,1004
2017-09-06T04:07:51.630Z,1004
2017-09-06T04:08:54.032Z,1004
2017-09-06T04:09:56.433Z,1004
2017-09-06T04:10:58.830Z,1003.9
2017-09-06T04:12:01.234Z,1003.9
2017-09-06T04:13:03.624Z,1003.9
2017-09-06T04:14:06.021Z,1003.8
2017-09-06T04:15:08.429Z,1003.8
2017-09-06T04:16:10.827Z,1003.8
2017-09-06T04:17:13.224Z,1003.7
2017-09-06T04:18:15.622Z,1003.7
2017-09-06T04:19:18.025Z,1003.7
2017-09-06T04:20:20.750Z,1003.7
2017-09-06T04:21:23.143Z,1003.7
2017-09-06T04:22:25.546Z,1003.7
2017-09-06T04:23:27.942Z,1003.6
2017-09-06T04:24:30.339Z,1003.6
2017-09-06T04:25:32.735Z,1003.6
2017-09-06T04:26:35.130Z,1003.6
2017-09-06T04:27:37.533Z,1003.6
2017-09-06T04:28:39.936Z,1003.6
2017-09-06T04:29:42.320Z,1003.6
2017-09-06T04:30:44.724Z,1003.5
2017-09-06T04:31:47.117Z,1003.5
2017-09-06T04:32:49.512Z,1003.5
2017-09-06T04:33:51.908Z,1003.6
2017-09-06T04:34:54.306Z,1003.5
2017-09-06T04:35:56.701Z,1003.6
2017-09-06T04:36:59.095Z,1003.5
2017-09-06T04:38:01.489Z,1003.5
2017-09-06T04:39:03.887Z,1003.5
2017-09-06T04:40:06.965Z,1003.6
2017-09-06T04:41:09.358Z,1003.5
2017-09-06T04:42:11.754Z,1003.6
2017-09-06T04:43:14.151Z,1003.6
2017-09-06T04:44:16.544Z,1003.6
2017-09-06T04:45:18.951Z,1003.6
2017-09-06T04:46:21.673Z,1003.6
2017-09-06T04:47:24.411Z,1003.6
2017-09-06T04:48:26.807Z,1003.6
2017-09-06T04:49:29.201Z,1003.6
2017-09-06T04:50:31.598Z,1003.6
2017-09-06T04:51:34.004Z,1003.6
2017-09-06T04:52:36.397Z,1003.6
2017-09-06T04:53:38.802Z,1003.6
2017-09-06T04:54:41.204Z,1003.6
2017-09-06T04:55:43.598Z,1003.6
2017-09-06T04:56:45.997Z,1003.5
2017-09-06T04:57:48.396Z,1003.5
2017-09-06T04:58:50.793Z,1003.5
2017-09-06T04:59:53.186Z,1003.5
2017-09-06T05:00:55.578Z,1003.4
2017-09-06T05:01:57.973Z,1003.5
2017-09-06T05:03:00.376Z,1003.4
2017-09-06T05:04:02.771Z,1003.4
2017-09-06T05:05:05.171Z,1003.4
2017-09-06T05:06:07.569Z,1003.4
2017-09-06T05:07:09.974Z,1003.3
2017-09-06T05:08:12.372Z,1003.3
2017-09-06T05:09:14.773Z,1003.3
2017-09-06T05:10:17.172Z,1003.3
2017-09-06T05:11:19.567Z,1003.3
2017-09-06T05:12:21.963Z,1003.3
2017-09-06T05:13:24.364Z,1003.3
2017-09-06T05:14:26.748Z,1003.3
2017-09-06T05:15:29.151Z,1003.3
2017-09-06T05:16:31.551Z,1003.2
2017-09-06T05:17:34.277Z,1003.3
2017-09-06T05:18:37.012Z,1003.2
2017-09-06T05:19:39.417Z,1003.3
2017-09-06T05:20:42.153Z,1003.3
2017-09-06T05:21:44.558Z,1003.3
2017-09-06T05:22:46.949Z,1003.3
2017-09-06T05:23:49.345Z,1003.2
2017-09-06T05:24:51.741Z,1003.2
2017-09-06T05:25:54.137Z,1003.2
2017-09-06T05:26:56.873Z,1003.2
2017-09-06T05:27:59.270Z,1003.2
2017-09-06T05:29:02.004Z,1003.3
2017-09-06T05:30:04.399Z,1003.3
2017-09-06T05:31:06.802Z,1003.3
2017-09-06T05:32:09.200Z,1003.3
2017-09-06T05:33:11.593Z,1003.3
2017-09-06T05:34:13.992Z,1003.3
2017-09-06T05:35:16.393Z,1003.3
2017-09-06T05:36:18.793Z,1003.2
2017-09-06T05:37:21.201Z,1003.2
2017-09-06T05:38:23.586Z,1003.2
2017-09-06T05:39:25.985Z,1003.2
2017-09-06T05:40:28.384Z,1003.2
2017-09-06T05:41:30.781Z,1003.2
2017-09-06T05:42:33.182Z,1003.2
2017-09-06T05:43:35.574Z,1003.2
2017-09-06T05:44:37.972Z,1003.3
2017-09-06T05:45:40.369Z,1003.3
2017-09-06T05:46:43.104Z,1003.3
2017-09-06T05:47:45.497Z,1003.2
2017-09-06T05:48:48.263Z,1003.3
2017-09-06T05:49:50.630Z,1003.3
2017-09-06T05:50:53.031Z,1003.3
2017-09-06T05:51:55.430Z,1003.3
2017-09-06T05:52:57.828Z,1003.3
2017-09-06T05:54:00.219Z,1003.3
2017-09-06T05:55:02.613Z,1003.2
2017-09-06T05:56:05.009Z,1003.2
2017-09-06T05:57:07.406Z,1003.3
2017-09-06T05:58:09.804Z,1003.3
2017-09-06T05:59:12.206Z,1003.3
2017-09-06T06:00:14.959Z,1003.3
2017-09-06T06:01:17.456Z,1003.3
2017-09-06T06:02:19.864Z,1003.2
2017-09-06T06:03:22.264Z,1003.2
2017-09-06T06:04:24.656Z,1003.2
2017-09-06T06:05:27.055Z,1003.2
2017-09-06T06:06:29.458Z,1003.2
2017-09-06T06:07:31.861Z,1003.2
2017-09-06T06:08:34.257Z,1003.2
2017-09-06T06:09:36.645Z,1003.2
2017-09-06T06:10:39.048Z,1003.2
2017-09-06T06:11:41.463Z,1003.1
2017-09-06T06:12:43.866Z,1003.2
2017-09-06T06:13:46.261Z,1003.1
2017-09-06T06:14:48.660Z,1003.1
2017-09-06T06:15:51.061Z,1003.2
2017-09-06T06:16:53.459Z,1003.1
2017-09-06T06:17:55.854Z,1003.1
2017-09-06T06:18:58.260Z,1003
2017-09-06T06:20:00.656Z,1003
2017-09-06T06:21:03.056Z,1003
2017-09-06T06:22:05.459Z,1003
2017-09-06T06:23:08.211Z,1003
2017-09-06T06:24:10.610Z,1003
2017-09-06T06:25:13.350Z,1003
2017-09-06T06:26:15.739Z,1003
2017-09-06T06:27:18.143Z,1003
2017-09-06T06:28:20.538Z,1003
2017-09-06T06:29:22.943Z,1003
2017-09-06T06:30:25.344Z,1003
2017-09-06T06:31:27.737Z,1003
2017-09-06T06:32:30.136Z,1003
2017-09-06T06:33:32.537Z,1003
2017-09-06T06:34:34.933Z,1003
2017-09-06T06:35:37.318Z,1003
2017-09-06T06:36:39.721Z,1003
2017-09-06T06:37:42.115Z,1003
2017-09-06T06:38:44.513Z,1003
2017-09-06T06:39:46.910Z,1003
2017-09-06T06:40:49.654Z,1002.9
2017-09-06T06:41:52.055Z,1002.9
2017-09-06T06:42:54.817Z,1002.9
2017-09-06T06:43:57.207Z,1002.9
2017-09-06T06:44:59.599Z,1002.8
2017-09-06T06:46:01.995Z,1002.8
2017-09-06T06:47:04.394Z,1002.8
2017-09-06T06:48:06.793Z,1002.9
2017-09-06T06:49:09.190Z,1002.9
2017-09-06T06:50:11.585Z,1002.8
2017-09-06T06:51:14.321Z,1002.8
2017-09-06T06:52:16.715Z,1002.8
2017-09-06T06:53:19.118Z,1002.8
2017-09-06T06:54:21.857Z,1002.8
2017-09-06T06:55:24.250Z,1002.8
2017-09-06T06:56:26.641Z,1002.7
2017-09-06T06:57:29.035Z,1002.7
2017-09-06T06:58:31.426Z,1002.7
2017-09-06T06:59:33.822Z,1002.7
2017-09-06T07:00:36.216Z,1002.7
2017-09-06T07:01:38.614Z,1002.7
2017-09-06T07:02:41.010Z,1002.7
2017-09-06T07:03:43.408Z,1002.7
2017-09-06T07:04:45.807Z,1002.6
2017-09-06T07:05:48.196Z,1002.6
2017-09-06T07:06:50.599Z,1002.6
2017-09-06T07:07:52.996Z,1002.6
2017-09-06T07:08:55.390Z,1002.6
2017-09-06T07:09:58.133Z,1002.6
2017-09-06T07:11:00.526Z,1002.6
2017-09-06T07:12:02.921Z,1002.6
2017-09-06T07:13:05.320Z,1002.6
2017-09-06T07:14:07.721Z,1002.6
2017-09-06T07:15:10.471Z,1002.5
2017-09-06T07:16:12.876Z,1002.5
2017-09-06T07:17:15.285Z,1002.5
2017-09-06T07:18:17.719Z,1002.5
2017-09-06T07:19:20.144Z,1002.6
2017-09-06T07:20:22.572Z,1002.5
2017-09-06T07:21:24.978Z,1002.5
2017-09-06T07:22:27.397Z,1002.5
2017-09-06T07:23:29.815Z,1002.5
2017-09-06T07:24:32.224Z,1002.6
2017-09-06T07:25:34.630Z,1002.5
2017-09-06T07:26:37.040Z,1002.5
2017-09-06T07:27:39.457Z,1002.5
2017-09-06T07:28:41.869Z,1002.5
2017-09-06T07:29:44.977Z,1002.5
2017-09-06T07:30:47.410Z,1002.5
2017-09-06T07:31:49.812Z,1002.4
2017-09-06T07:32:52.240Z,1002.4
2017-09-06T07:33:54.649Z,1002.4
2017-09-06T07:34:57.058Z,1002.4
2017-09-06T07:35:59.458Z,1002.3
2017-09-06T07:37:01.877Z,1002.3
2017-09-06T07:38:04.304Z,1002.3
2017-09-06T07:39:06.723Z,1002.3
2017-09-06T07:40:09.490Z,1002.3
2017-09-06T07:41:11.899Z,1002.3
2017-09-06T07:42:14.319Z,1002.3
2017-09-06T07:43:17.074Z,1002.3
2017-09-06T07:44:19.487Z,1002.3
2017-09-06T07:45:21.915Z,1002.2
2017-09-06T07:46:24.339Z,1002.2
2017-09-06T07:47:26.770Z,1002.2
2017-09-06T07:48:29.189Z,1002.2
2017-09-06T07:49:31.611Z,1002.1
2017-09-06T07:50:34.011Z,1002.2
2017-09-06T07:51:36.430Z,1002.1
2017-09-06T07:52:38.836Z,1002.1
2017-09-06T07:53:41.232Z,1002
2017-09-06T07:54:43.973Z,1002
2017-09-06T07:55:46.367Z,1002.1
2017-09-06T07:56:48.762Z,1002.1
2017-09-06T07:57:51.171Z,1002
2017-09-06T07:58:53.566Z,1002
2017-09-06T07:59:56.305Z,1002
2017-09-06T08:00:58.701Z,1002
2017-09-06T08:02:01.094Z,1002
2017-09-06T08:03:03.491Z,1002.1
2017-09-06T08:04:05.891Z,1002
2017-09-06T08:05:08.308Z,1002.1
2017-09-06T08:06:10.686Z,1002.1
2017-09-06T08:07:13.083Z,1002
2017-09-06T08:08:15.485Z,1002
2017-09-06T08:09:18.220Z,1002
2017-09-06T08:10:20.619Z,1002
2017-09-06T08:11:23.010Z,1002
2017-09-06T08:12:25.413Z,1002
2017-09-06T08:13:28.149Z,1002
2017-09-06T08:14:30.555Z,1002
2017-09-06T08:15:33.279Z,1002
2017-09-06T08:16:35.679Z,1002
2017-09-06T08:17:38.090Z,1002
2017-09-06T08:18:40.483Z,1002
2017-09-06T08:19:42.884Z,1002
2017-09-06T08:20:45.281Z,1002
2017-09-06T08:21:47.677Z,1002
2017-09-06T08:22:50.083Z,1002
2017-09-06T08:23:52.480Z,1002
2017-09-06T08:24:54.873Z,1002
2017-09-06T08:25:57.276Z,1002
2017-09-06T08:26:59.675Z,1002
2017-09-06T08:28:02.414Z,1002
2017-09-06T08:29:04.809Z,1002.1
2017-09-06T08:30:07.200Z,1002
2017-09-06T08:31:09.595Z,1002
2017-09-06T08:32:12.003Z,1002.1
2017-09-06T08:33:14.397Z,1002
2017-09-06T08:34:16.795Z,1002
2017-09-06T08:35:19.192Z,1002.1
2017-09-06T08:36:21.591Z,1002.1
2017-09-06T08:37:23.994Z,1002.1
2017-09-06T08:38:26.393Z,1002
2017-09-06T08:39:28.779Z,1002
2017-09-06T08:40:31.176Z,1002
2017-09-06T08:41:33.571Z,1002
2017-09-06T08:42:35.971Z,1002
2017-09-06T08:43:38.374Z,1002
2017-09-06T08:44:40.767Z,1002
2017-09-06T08:45:43.169Z,1002
2017-09-06T08:46:46.289Z,1002
2017-09-06T08:47:48.688Z,1002
2017-09-06T08:48:51.082Z,1002
2017-09-06T08:49:53.492Z,1002
2017-09-06T08:50:55.879Z,1002
2017-09-06T08:51:58.284Z,1002
2017-09-06T08:53:00.682Z,1001.9
2017-09-06T08:54:03.424Z,1001.9
2017-09-06T08:55:05.821Z,1001.9
2017-09-06T08:56:08.230Z,1001.9
2017-09-06T08:57:10.620Z,1001.9
2017-09-06T08:58:13.029Z,1001.9
2017-09-06T08:59:15.424Z,1001.9
2017-09-06T09:00:18.164Z,1001.9
2017-09-06T09:01:20.569Z,1001.9
2017-09-06T09:02:22.989Z,1001.9
2017-09-06T09:03:25.357Z,1001.9
2017-09-06T09:04:27.771Z,1001.9
2017-09-06T09:05:30.168Z,1001.9
2017-09-06T09:06:32.905Z,1001.9
2017-09-06T09:07:35.309Z,1001.9
2017-09-06T09:08:37.705Z,1001.9
2017-09-06T09:09:40.103Z,1001.9
2017-09-06T09:10:42.511Z,1001.9
2017-09-06T09:11:44.911Z,1001.9
2017-09-06T09:12:47.310Z,1001.9
2017-09-06T09:13:49.707Z,1001.9
2017-09-06T09:14:52.111Z,1001.9
2017-09-06T09:15:54.507Z,1001.9
2017-09-06T09:16:57.239Z,1001.9
2017-09-06T09:17:59.644Z,1001.9
2017-09-06T09:19:02.039Z,1001.8
2017-09-06T09:20:04.435Z,1001.9
2017-09-06T09:21:06.845Z,1001.9
2017-09-06T09:22:09.241Z,1001.9
2017-09-06T09:23:11.643Z,1001.9
2017-09-06T09:24:14.051Z,1001.9
2017-09-06T09:25:16.448Z,1001.9
2017-09-06T09:26:18.853Z,1001.9
2017-09-06T09:27:21.252Z,1001.9
2017-09-06T09:28:23.644Z,1001.8
2017-09-06T09:29:26.058Z,1001.8
2017-09-06T09:30:28.460Z,1001.8
2017-09-06T09:31:31.218Z,1001.8
2017-09-06T09:32:33.990Z,1001.8
2017-09-06T09:33:36.388Z,1001.8
2017-09-06T09:34:38.785Z,1001.8
2017-09-06T09:35:41.188Z,1001.8
2017-09-06T09:36:43.591Z,1001.8
2017-09-06T09:37:45.989Z,1001.8
2017-09-06T09:38:48.397Z,1001.7
2017-09-06T09:39:50.797Z,1001.7
2017-09-06T09:40:53.538Z,1001.7
2017-09-06T09:41:55.942Z,1001.7
2017-09-06T09:42:58.345Z,1001.7
2017-09-06T09:44:01.119Z,1001.7
2017-09-06T09:45:03.514Z,1001.7
2017-09-06T09:46:05.923Z,1001.7
2017-09-06T09:47:08.320Z,1001.7
2017-09-06T09:48:10.724Z,1001.7
2017-09-06T09:49:13.129Z,1001.7
2017-09-06T09:50:15.532Z,1001.7
2017-09-06T09:51:17.934Z,1001.6
2017-09-06T09:52:20.337Z,1001.6
2017-09-06T09:53:22.730Z,1001.6
2017-09-06T09:54:25.131Z,1001.6
2017-09-06T09:55:27.536Z,1001.6
2017-09-06T09:56:29.939Z,1001.6
2017-09-06T09:57:32.341Z,1001.5
2017-09-06T09:58:34.742Z,1001.6
2017-09-06T09:59:37.143Z,1001.5
2017-09-06T10:00:39.553Z,1001.5
2017-09-06T10:01:41.954Z,1001.5
2017-09-06T10:02:44.359Z,1001.5
2017-09-06T10:03:46.762Z,1001.5
2017-09-06T10:04:49.160Z,1001.4
2017-09-06T10:05:51.567Z,1001.4
2017-09-06T10:06:53.967Z,1001.4
2017-09-06T10:07:56.365Z,1001.4
2017-09-06T10:08:58.770Z,1001.4
2017-09-06T10:10:01.168Z,1001.4
2017-09-06T10:11:03.577Z,1001.4
2017-09-06T10:12:05.970Z,1001.4
2017-09-06T10:13:08.385Z,1001.4
2017-09-06T10:14:10.774Z,1001.4
2017-09-06T10:15:13.178Z,1001.3
2017-09-06T10:16:15.582Z,1001.3
2017-09-06T10:17:17.983Z,1001.3
2017-09-06T10:18:20.386Z,1001.3
2017-09-06T10:19:22.798Z,1001.3
2017-09-06T10:20:25.207Z,1001.3
2017-09-06T10:21:27.601Z,1001.3
2017-09-06T10:22:30.005Z,1001.3
2017-09-06T10:23:32.423Z,1001.3
2017-09-06T10:24:34.821Z,1001.3
2017-09-06T10:25:37.567Z,1001.3
2017-09-06T10:26:39.956Z,1001.3
2017-09-06T10:27:42.356Z,1001.2
2017-09-06T10:28:44.766Z,1001.2
2017-09-06T10:29:47.169Z,1001.2
2017-09-06T10:30:49.915Z,1001.2
2017-09-06T10:31:52.319Z,1001.2
2017-09-06T10:32:54.719Z,1001.2
2017-09-06T10:33:57.133Z,1001.1
2017-09-06T10:34:59.534Z,1001.1
2017-09-06T10:36:01.935Z,1001.1
2017-09-06T10:37:04.372Z,1001.1
2017-09-06T10:38:06.804Z,1001
2017-09-06T10:39:09.237Z,1001
2017-09-06T10:40:11.666Z,1001
2017-09-06T10:41:14.097Z,1001
2017-09-06T10:42:16.517Z,1001
2017-09-06T10:43:18.946Z,1001
2017-09-06T10:44:21.368Z,1000.9
2017-09-06T10:45:23.796Z,1001
2017-09-06T10:46:26.577Z,1001
2017-09-06T10:47:29.340Z,1001
2017-09-06T10:48:31.756Z,1001
2017-09-06T10:49:34.240Z,1000.9
2017-09-06T10:50:36.988Z,1000.9
2017-09-06T10:51:39.759Z,1000.9
2017-09-06T10:52:42.206Z,1000.9
2017-09-06T10:53:44.641Z,1000.9
2017-09-06T10:54:47.067Z,1000.8
2017-09-06T10:55:49.503Z,1000.8
2017-09-06T10:56:51.930Z,1000.8
2017-09-06T10:57:54.363Z,1000.8
2017-09-06T10:58:57.141Z,1000.8
2017-09-06T10:59:59.545Z,1000.8
2017-09-06T11:01:01.976Z,1000.7
2017-09-06T11:02:04.405Z,1000.8
2017-09-06T11:03:06.837Z,1000.7
2017-09-06T11:04:09.267Z,1000.8
2017-09-06T11:05:11.690Z,1000.8
2017-09-06T11:06:14.111Z,1000.7
2017-09-06T11:07:16.539Z,1000.8
2017-09-06T11:08:18.964Z,1000.7
2017-09-06T11:09:21.402Z,1000.7
2017-09-06T11:10:23.835Z,1000.7
2017-09-06T11:11:26.607Z,1000.7
2017-09-06T11:12:29.022Z,1000.7
2017-09-06T11:13:31.445Z,1000.7
2017-09-06T11:14:33.877Z,1000.6
2017-09-06T11:15:36.308Z,1000.6
2017-09-06T11:16:38.730Z,1000.6
2017-09-06T11:17:41.182Z,1000.6
2017-09-06T11:18:43.608Z,1000.6
2017-09-06T11:19:46.381Z,1000.6
2017-09-06T11:20:48.812Z,1000.6
2017-09-06T11:21:51.594Z,1000.6
2017-09-06T11:22:54.016Z,1000.6
2017-09-06T11:23:56.451Z,1000.6
2017-09-06T11:24:58.874Z,1000.6
2017-09-06T11:26:01.314Z,1000.6
2017-09-06T11:27:03.745Z,1000.6
2017-09-06T11:28:06.158Z,1000.6
2017-09-06T11:29:08.604Z,1000.6
2017-09-06T11:30:11.041Z,1000.6
2017-09-06T11:31:13.463Z,1000.5
2017-09-06T11:32:15.880Z,1000.5
2017-09-06T11:33:18.633Z,1000.5
2017-09-06T11:34:21.070Z,1000.5
2017-09-06T11:35:23.500Z,1000.5
2017-09-06T11:36:25.922Z,1000.5
2017-09-06T11:37:28.353Z,1000.5
2017-09-06T11:38:30.783Z,1000.5
2017-09-06T11:39:33.213Z,1000.5
2017-09-06T11:40:35.647Z,1000.5
2017-09-06T11:41:38.408Z,1000.5
2017-09-06T11:42:40.842Z,1000.4
2017-09-06T11:43:43.281Z,1000.4
2017-09-06T11:44:45.713Z,1000.4
2017-09-06T11:45:48.147Z,1000.4
2017-09-06T11:46:50.575Z,1000.5
2017-09-06T11:47:53.007Z,1000.4
2017-09-06T11:48:55.788Z,1000.4
2017-09-06T11:49:58.219Z,1000.3
2017-09-06T11:51:00.630Z,1000.3
2017-09-06T11:52:03.079Z,1000.3
2017-09-06T11:53:05.509Z,1000.2
2017-09-06T11:54:07.949Z,1000.3
2017-09-06T11:55:10.713Z,1000.2
2017-09-06T11:56:13.148Z,1000.2
2017-09-06T11:57:15.559Z,1000.2
2017-09-06T11:58:17.995Z,1000.2
2017-09-06T11:59:20.418Z,1000.2
2017-09-06T12:00:22.851Z,1000.2
2017-09-06T12:01:25.283Z,1000.2
2017-09-06T12:02:28.036Z,1000.1
2017-09-06T12:03:30.487Z,1000
2017-09-06T12:04:32.919Z,1000.1
2017-09-06T12:05:35.693Z,1000.1
2017-09-06T12:06:38.110Z,1000
2017-09-06T12:07:40.544Z,1000
2017-09-06T12:08:42.948Z,1000
2017-09-06T12:09:45.373Z,1000
2017-09-06T12:10:47.798Z,1000
2017-09-06T12:11:50.229Z,1000
2017-09-06T12:12:52.661Z,999.9
2017-09-06T12:13:55.096Z,1000
2017-09-06T12:14:57.532Z,1000
2017-09-06T12:15:59.954Z,999.9
2017-09-06T12:17:02.749Z,999.9
2017-09-06T12:18:05.168Z,999.9
2017-09-06T12:19:07.942Z,999.8
2017-09-06T12:20:10.375Z,999.8
2017-09-06T12:21:12.807Z,999.8
2017-09-06T12:22:15.253Z,999.8
2017-09-06T12:23:17.686Z,999.9
2017-09-06T12:24:20.111Z,999.9
2017-09-06T12:25:22.562Z,999.9
2017-09-06T12:26:24.994Z,999.9
2017-09-06T12:27:27.417Z,999.8
2017-09-06T12:28:29.828Z,999.9
2017-09-06T12:29:32.272Z,999.9
2017-09-06T12:30:34.693Z,999.9
2017-09-06T12:31:37.118Z,999.9
2017-09-06T12:32:39.880Z,999.9
2017-09-06T12:33:42.301Z,999.9
2017-09-06T12:34:44.734Z,999.8
2017-09-06T12:35:47.493Z,999.8
2017-09-06T12:36:49.918Z,999.8
2017-09-06T12:37:52.351Z,999.8
2017-09-06T12:38:54.777Z,999.8
2017-09-06T12:39:57.191Z,999.8
2017-09-06T12:40:59.632Z,999.7
2017-09-06T12:42:02.054Z,999.8
2017-09-06T12:43:04.476Z,999.8
2017-09-06T12:44:06.903Z,999.7
2017-09-06T12:45:09.396Z,999.8
2017-09-06T12:46:11.816Z,999.8
2017-09-06T12:47:14.246Z,999.8
2017-09-06T12:48:16.666Z,999.8
2017-09-06T12:49:19.447Z,999.7
2017-09-06T12:50:21.871Z,999.7
2017-09-06T12:51:24.304Z,999.8
2017-09-06T12:52:26.727Z,999.8
2017-09-06T12:53:29.134Z,999.7
2017-09-06T12:54:31.574Z,999.8
2017-09-06T12:55:33.997Z,999.7
2017-09-06T12:56:36.426Z,999.8
2017-09-06T12:57:38.864Z,999.8
2017-09-06T12:58:41.638Z,999.8
2017-09-06T12:59:44.070Z,999.8
2017-09-06T13:00:46.499Z,999.8
2017-09-06T13:01:48.930Z,999.8
2017-09-06T13:02:51.341Z,999.8
2017-09-06T13:03:54.118Z,999.7
2017-09-06T13:04:56.537Z,999.8
2017-09-06T13:05:58.974Z,999.8
2017-09-06T13:07:01.403Z,999.8
2017-09-06T13:08:03.815Z,999.7